createdAt,value
2023-01-28T00:02:13.406Z,2.50
2023-01-28T00:04:41.703Z,2.60
2023-01-28T00:07:09.941Z,2.60
2023-01-28T00:09:39.356Z,2.60
2023-01-28T00:12:09.664Z,2.50
2023-01-28T00:14:38.160Z,2.60
2023-01-28T00:17:06.753Z,2.60
2023-01-28T00:19:35.100Z,2.60
2023-01-28T00:22:04.478Z,2.60
2023-01-28T00:24:32.872Z,2.50
2023-01-28T00:27:01.117Z,2.40
2023-01-28T00:29:30.736Z,2.50
2023-01-28T00:31:58.999Z,2.40
2023-01-28T00:34:30.832Z,2.50
2023-01-28T00:36:59.291Z,2.60
2023-01-28T00:39:28.286Z,2.60
2023-01-28T00:41:56.486Z,2.50
2023-01-28T00:44:26.212Z,2.50
2023-01-28T00:46:55.801Z,2.50
2023-01-28T00:49:24.068Z,2.50
2023-01-28T00:51:52.297Z,2.50
2023-01-28T00:54:20.944Z,2.60
2023-01-28T00:56:49.306Z,2.60
2023-01-28T00:59:17.706Z,2.60
2023-01-28T01:01:46.260Z,2.60
2023-01-28T01:04:26.406Z,2.60
2023-01-28T01:06:54.896Z,2.60
2023-01-28T01:09:23.133Z,2.70
2023-01-28T01:11:51.360Z,2.70
2023-01-28T01:14:19.572Z,2.60
2023-01-28T01:16:47.811Z,2.60
2023-01-28T01:19:17.587Z,2.60
2023-01-28T01:21:50.615Z,2.60
2023-01-28T01:24:19.350Z,2.60
2023-01-28T01:26:47.565Z,2.60
2023-01-28T01:29:15.762Z,2.60
2023-01-28T01:31:45.240Z,2.60
2023-01-28T01:34:13.549Z,2.50
2023-01-28T01:36:44.160Z,2.50
2023-01-28T01:39:13.912Z,2.50
2023-01-28T01:41:42.425Z,2.60
2023-01-28T01:44:44.097Z,2.60
2023-01-28T01:47:12.789Z,2.50
2023-01-28T01:49:42.287Z,2.50
2023-01-28T01:52:17.030Z,2.40
2023-01-28T01:54:49.545Z,2.50
2023-01-28T01:57:25.633Z,2.60
2023-01-28T01:59:54.640Z,2.60
2023-01-28T02:02:23.520Z,2.60
2023-01-28T02:04:51.897Z,2.60
2023-01-28T02:07:21.785Z,2.50
2023-01-28T02:09:49.999Z,2.50
2023-01-28T02:12:23.565Z,2.50
2023-01-28T02:14:57.240Z,2.40
2023-01-28T02:17:26.947Z,2.40
2023-01-28T02:19:58.951Z,2.40
2023-01-28T02:22:52.439Z,2.40
2023-01-28T02:25:56.059Z,2.40
2023-01-28T02:28:36.031Z,2.30
2023-01-28T02:31:12.207Z,2.40
2023-01-28T02:33:44.947Z,2.40
2023-01-28T02:36:20.932Z,2.40
2023-01-28T02:38:52.238Z,2.40
2023-01-28T02:41:26.372Z,2.50
2023-01-28T02:43:57.714Z,2.50
2023-01-28T02:46:55.875Z,2.50
2023-01-28T02:49:30.496Z,2.40
2023-01-28T02:52:18.428Z,2.50
2023-01-28T02:54:55.891Z,2.40
2023-01-28T02:57:36.968Z,2.40
2023-01-28T03:00:14.879Z,2.40
2023-01-28T03:02:50.161Z,2.40
2023-01-28T03:05:24.375Z,2.40
2023-01-28T03:07:54.080Z,2.50
2023-01-28T03:10:25.024Z,2.40
2023-01-28T03:13:14.148Z,2.30
2023-01-28T03:16:04.791Z,2.30
2023-01-28T03:18:58.478Z,2.30
2023-01-28T03:21:49.964Z,2.30
2023-01-28T03:24:41.917Z,2.30
2023-01-28T03:27:33.079Z,2.20
2023-01-28T03:30:29.709Z,2.20
2023-01-28T03:33:18.107Z,2.20
2023-01-28T03:36:04.512Z,2.20
2023-01-28T03:38:34.146Z,2.30
2023-01-28T03:41:04.904Z,2.30
2023-01-28T03:43:34.944Z,2.20
2023-01-28T03:46:06.175Z,2.30
2023-01-28T03:48:35.893Z,2.30
2023-01-28T03:51:07.525Z,2.20
2023-01-28T03:53:35.949Z,2.30
2023-01-28T03:56:04.182Z,2.10
2023-01-28T03:58:46.626Z,2.10
2023-01-28T04:01:16.289Z,2.20
2023-01-28T04:03:46.558Z,2.10
2023-01-28T04:06:24.481Z,2.10
2023-01-28T04:09:10.777Z,2.00
2023-01-28T04:11:56.857Z,2.10
2023-01-28T04:14:30.718Z,2.10
2023-01-28T04:17:07.655Z,2.00
2023-01-28T04:19:38.223Z,2.00
2023-01-28T04:22:11.371Z,2.10
2023-01-28T04:24:41.137Z,2.10
2023-01-28T04:27:10.114Z,2.10
2023-01-28T04:29:38.378Z,2.00
2023-01-28T04:32:32.434Z,2.10
2023-01-28T04:35:10.121Z,2.20
2023-01-28T04:37:50.610Z,2.20
2023-01-28T04:40:43.041Z,2.20
2023-01-28T04:43:14.672Z,2.20
2023-01-28T04:45:52.283Z,2.20
2023-01-28T04:48:40.778Z,2.10
2023-01-28T04:51:25.002Z,2.10
2023-01-28T04:54:13.470Z,2.00
2023-01-28T04:56:42.295Z,2.10
2023-01-28T04:59:11.426Z,2.00
2023-01-28T05:01:40.392Z,2.00
2023-01-28T05:04:09.877Z,1.90
2023-01-28T05:06:41.355Z,2.00
2023-01-28T05:09:23.702Z,2.00
2023-01-28T05:11:53.219Z,1.80
2023-01-28T05:14:21.551Z,1.90
2023-01-28T05:16:57.233Z,2.00
2023-01-28T05:19:25.580Z,2.10
2023-01-28T05:21:55.439Z,1.90
2023-01-28T05:24:37.743Z,1.80
2023-01-28T05:27:07.590Z,1.90
2023-01-28T05:29:36.111Z,1.90
2023-01-28T05:32:04.741Z,2.00
2023-01-28T05:34:33.448Z,1.90
2023-01-28T05:37:08.843Z,2.00
2023-01-28T05:39:39.228Z,1.90
2023-01-28T05:42:08.309Z,2.00
2023-01-28T05:44:41.855Z,2.00
2023-01-28T05:47:28.381Z,2.00
2023-01-28T05:50:15.709Z,1.80
2023-01-28T05:53:06.713Z,1.80
2023-01-28T05:55:36.808Z,1.90
2023-01-28T05:58:05.447Z,1.90
2023-01-28T06:00:33.874Z,1.80
2023-01-28T06:03:04.399Z,1.70
2023-01-28T06:05:33.298Z,1.80
2023-01-28T06:08:04.163Z,1.70
2023-01-28T06:10:32.540Z,1.70
2023-01-28T06:13:00.957Z,1.70
2023-01-28T06:15:41.933Z,1.70
2023-01-28T06:18:36.602Z,1.70
2023-01-28T06:21:05.175Z,1.70
2023-01-28T06:23:35.058Z,1.70
2023-01-28T06:26:09.066Z,1.70
2023-01-28T06:28:39.096Z,1.60
2023-01-28T06:31:08.046Z,1.60
2023-01-28T06:33:36.376Z,1.70
2023-01-28T06:36:06.705Z,1.70
2023-01-28T06:38:36.347Z,1.70
2023-01-28T06:41:04.825Z,1.70
2023-01-28T06:43:33.228Z,1.80
2023-01-28T06:46:01.984Z,1.80
2023-01-28T06:48:30.569Z,1.70
2023-01-28T06:50:58.784Z,1.60
2023-01-28T06:53:27.072Z,1.60
2023-01-28T06:55:56.621Z,1.50
2023-01-28T06:58:24.862Z,1.50
2023-01-28T07:00:54.669Z,1.50
2023-01-28T07:03:22.931Z,1.50
2023-01-28T07:05:51.187Z,1.50
2023-01-28T07:08:19.505Z,1.50
2023-01-28T07:10:49.310Z,1.50
2023-01-28T07:13:18.853Z,1.40
2023-01-28T07:15:47.066Z,1.40
2023-01-28T07:18:15.361Z,1.50
2023-01-28T07:20:43.703Z,1.40
2023-01-28T07:23:12.388Z,1.30
2023-01-28T07:25:40.681Z,1.40
2023-01-28T07:28:08.905Z,1.40
2023-01-28T07:30:38.538Z,1.30
2023-01-28T07:33:06.853Z,1.30
2023-01-28T07:35:35.493Z,1.20
2023-01-28T07:38:03.716Z,1.20
2023-01-28T07:40:32.010Z,1.20
2023-01-28T07:43:00.930Z,1.30
2023-01-28T07:45:38.724Z,1.20
2023-01-28T07:48:08.949Z,1.40
2023-01-28T07:50:48.591Z,1.50
2023-01-28T07:53:17.701Z,1.50
2023-01-28T07:55:45.920Z,1.50
2023-01-28T07:58:14.231Z,1.50
2023-01-28T08:00:44.123Z,1.50
2023-01-28T08:03:15.798Z,1.60
2023-01-28T08:05:47.301Z,1.60
2023-01-28T08:08:16.187Z,1.60
2023-01-28T08:10:45.070Z,1.60
2023-01-28T08:13:14.877Z,1.60
2023-01-28T08:15:45.289Z,1.50
2023-01-28T08:18:15.622Z,1.50
2023-01-28T08:20:45.288Z,1.50
2023-01-28T08:23:15.523Z,1.60
2023-01-28T08:25:44.294Z,1.60
2023-01-28T08:28:13.156Z,1.70
2023-01-28T08:30:41.516Z,1.70
2023-01-28T08:33:13.253Z,1.70
2023-01-28T08:35:42.061Z,1.70
2023-01-28T08:38:12.047Z,1.80
2023-01-28T08:40:40.542Z,1.70
2023-01-28T08:43:09.357Z,1.60
2023-01-28T08:45:37.720Z,1.70
2023-01-28T08:48:08.658Z,1.70
2023-01-28T08:50:40.404Z,1.70
2023-01-28T08:53:11.350Z,1.70
2023-01-28T08:55:39.593Z,1.80
2023-01-28T08:58:09.165Z,1.90
2023-01-28T09:00:37.813Z,1.90
2023-01-28T09:03:06.445Z,1.90
2023-01-28T09:05:37.859Z,1.80
2023-01-28T09:08:08.173Z,1.70
2023-01-28T09:10:37.620Z,1.70
2023-01-28T09:13:10.358Z,1.90
2023-01-28T09:15:38.821Z,2.00
2023-01-28T09:18:07.351Z,2.00
2023-01-28T09:20:37.906Z,1.90
2023-01-28T09:23:07.060Z,2.10
2023-01-28T09:25:36.222Z,2.00
2023-01-28T09:28:05.071Z,2.00
2023-01-28T09:30:37.263Z,1.80
2023-01-28T09:33:05.854Z,1.80
2023-01-28T09:35:35.069Z,1.60
2023-01-28T09:38:04.867Z,1.90
2023-01-28T09:40:37.053Z,2.00
2023-01-28T09:43:25.858Z,2.10
2023-01-28T09:45:56.956Z,2.20
2023-01-28T09:48:32.870Z,2.30
2023-01-28T09:51:02.025Z,2.10
2023-01-28T09:53:34.245Z,2.10
2023-01-28T09:56:04.799Z,2.10
2023-01-28T09:58:33.168Z,2.10
2023-01-28T10:01:26.461Z,2.10
2023-01-28T10:03:59.488Z,2.10
2023-01-28T10:06:33.899Z,2.20
2023-01-28T10:09:20.489Z,2.10
2023-01-28T10:12:04.141Z,2.10
2023-01-28T10:14:46.946Z,2.00
2023-01-28T10:17:21.054Z,2.00
2023-01-28T10:19:52.996Z,2.00
2023-01-28T10:22:25.841Z,2.00
2023-01-28T10:25:01.840Z,2.10
2023-01-28T10:27:32.205Z,2.30
2023-01-28T10:30:01.737Z,2.30
2023-01-28T10:32:34.117Z,2.30
2023-01-28T10:35:03.595Z,2.40
2023-01-28T10:37:35.607Z,2.40
2023-01-28T10:40:09.415Z,2.50
2023-01-28T10:42:39.560Z,2.50
2023-01-28T10:45:16.857Z,2.10
2023-01-28T10:47:49.197Z,2.00
2023-01-28T10:50:23.016Z,2.00
2023-01-28T10:52:56.106Z,2.20
2023-01-28T10:55:27.882Z,2.10
2023-01-28T10:57:56.584Z,2.20
2023-01-28T11:00:27.268Z,2.30
2023-01-28T11:02:56.107Z,2.20
2023-01-28T11:05:27.294Z,2.30
2023-01-28T11:08:07.520Z,2.20
2023-01-28T11:10:40.399Z,2.00
2023-01-28T11:13:17.893Z,2.00
2023-01-28T11:15:50.434Z,2.00
2023-01-28T11:18:22.403Z,2.10
2023-01-28T11:20:56.828Z,2.20
2023-01-28T11:23:27.988Z,2.30
2023-01-28T11:26:06.866Z,2.10
2023-01-28T11:28:36.228Z,2.00
2023-01-28T11:31:07.469Z,2.00
2023-01-28T11:33:39.479Z,2.00
2023-01-28T11:36:14.732Z,1.90
2023-01-28T11:38:54.334Z,2.00
2023-01-28T11:41:30.314Z,2.00
2023-01-28T11:44:00.312Z,1.90
2023-01-28T11:46:47.263Z,2.10
2023-01-28T11:49:25.652Z,2.10
2023-01-28T11:52:00.801Z,2.30
2023-01-28T11:54:44.383Z,2.20
2023-01-28T11:57:24.594Z,2.20
2023-01-28T12:00:14.305Z,2.30
2023-01-28T12:02:53.109Z,2.30
2023-01-28T12:05:41.166Z,2.40
2023-01-28T12:08:19.664Z,2.30
2023-01-28T12:11:07.909Z,2.00
2023-01-28T12:13:52.674Z,2.10
2023-01-28T12:16:43.997Z,2.40
2023-01-28T12:19:46.297Z,2.40
2023-01-28T12:22:30.924Z,2.40
2023-01-28T12:25:16.669Z,2.40
2023-01-28T12:27:52.289Z,2.50
2023-01-28T12:30:32.648Z,2.70
2023-01-28T12:33:31.355Z,2.90
2023-01-28T12:36:09.669Z,3.10
2023-01-28T12:38:47.452Z,2.80
2023-01-28T12:41:17.720Z,2.80
2023-01-28T12:43:53.265Z,2.80
2023-01-28T12:46:33.396Z,3.00
2023-01-28T12:49:07.367Z,3.00
2023-01-28T12:51:45.611Z,3.10
2023-01-28T12:54:20.174Z,2.90
2023-01-28T12:56:53.078Z,2.50
2023-01-28T12:59:26.616Z,2.60
2023-01-28T13:02:05.602Z,2.50
2023-01-28T13:04:40.212Z,2.50
2023-01-28T13:07:13.701Z,2.50
2023-01-28T13:09:53.492Z,2.60
2023-01-28T13:12:22.998Z,2.60
2023-01-28T13:14:54.079Z,2.50
2023-01-28T13:17:31.744Z,2.70
2023-01-28T13:20:01.084Z,2.60
2023-01-28T13:22:32.686Z,2.40
2023-01-28T13:25:20.824Z,2.50
2023-01-28T13:28:01.962Z,2.60
2023-01-28T13:30:32.753Z,2.70
2023-01-28T13:33:05.169Z,2.60
2023-01-28T13:35:36.662Z,2.40
2023-01-28T13:38:10.909Z,2.50
2023-01-28T13:40:41.841Z,2.30
2023-01-28T13:43:27.253Z,2.20
2023-01-28T13:46:01.226Z,2.40
2023-01-28T13:48:35.868Z,2.60
2023-01-28T13:51:05.383Z,2.60
2023-01-28T13:53:42.403Z,2.50
2023-01-28T13:56:21.783Z,2.70
2023-01-28T13:59:18.593Z,2.90
2023-01-28T14:02:01.578Z,2.70
2023-01-28T14:05:10.072Z,2.70
2023-01-28T14:08:25.997Z,2.80
2023-01-28T14:11:09.791Z,2.60
2023-01-28T14:14:04.695Z,2.60
2023-01-28T14:16:42.251Z,2.70
2023-01-28T14:19:14.345Z,2.60
2023-01-28T14:21:44.338Z,2.60
2023-01-28T14:24:18.113Z,2.50
2023-01-28T14:26:54.534Z,2.40
2023-01-28T14:29:34.306Z,2.30
2023-01-28T14:32:07.281Z,2.20
2023-01-28T14:34:38.172Z,2.30
2023-01-28T14:37:10.915Z,2.30
2023-01-28T14:39:45.017Z,2.30
2023-01-28T14:42:20.215Z,2.10
2023-01-28T14:44:51.980Z,2.20
2023-01-28T14:47:44.495Z,2.20
2023-01-28T14:50:27.893Z,2.20
2023-01-28T14:53:27.328Z,2.20
2023-01-28T14:56:03.608Z,2.10
2023-01-28T14:58:34.219Z,2.00
2023-01-28T15:01:02.974Z,2.10
2023-01-28T15:03:32.538Z,2.00
2023-01-28T15:06:13.804Z,2.00
2023-01-28T15:08:43.516Z,2.00
2023-01-28T15:11:16.407Z,2.00
2023-01-28T15:13:47.117Z,2.00
2023-01-28T15:16:20.567Z,1.90
2023-01-28T15:18:50.881Z,1.90
2023-01-28T15:21:21.531Z,1.90
2023-01-28T15:23:53.998Z,1.90
2023-01-28T15:26:24.654Z,1.80
2023-01-28T15:28:55.018Z,1.70
2023-01-28T15:31:24.673Z,1.70
2023-01-28T15:34:00.405Z,1.70
2023-01-28T15:36:29.359Z,1.70
2023-01-28T15:38:59.265Z,1.80
2023-01-28T15:41:32.140Z,1.70
2023-01-28T15:44:00.807Z,1.70
2023-01-28T15:46:30.730Z,1.70
2023-01-28T15:49:01.915Z,1.70
2023-01-28T15:51:32.116Z,1.70
2023-01-28T15:54:05.300Z,1.50
2023-01-28T15:56:34.112Z,1.50
2023-01-28T15:59:20.856Z,1.50
2023-01-28T16:01:49.278Z,1.50
2023-01-28T16:04:25.805Z,1.50
2023-01-28T16:06:56.010Z,1.40
2023-01-28T16:09:30.167Z,1.40
2023-01-28T16:12:03.931Z,1.30
2023-01-28T16:14:41.436Z,1.20
2023-01-28T16:17:10.229Z,1.10
2023-01-28T16:19:42.214Z,1.10
2023-01-28T16:22:21.341Z,1.00
2023-01-28T16:24:52.969Z,1.00
2023-01-28T16:27:24.441Z,0.90
2023-01-28T16:29:52.900Z,1.00
2023-01-28T16:32:35.079Z,0.90
2023-01-28T16:35:04.572Z,0.80
2023-01-28T16:37:32.799Z,0.80
2023-01-28T16:40:02.632Z,0.80
2023-01-28T16:42:33.180Z,0.80
2023-01-28T16:45:01.760Z,0.70
2023-01-28T16:47:30.326Z,0.70
2023-01-28T16:49:58.919Z,0.60
2023-01-28T16:52:27.144Z,0.60
2023-01-28T16:54:55.893Z,0.50
2023-01-28T16:57:25.711Z,0.50
2023-01-28T16:59:54.004Z,0.40
2023-01-28T17:02:22.241Z,0.30
2023-01-28T17:04:51.258Z,0.20
2023-01-28T17:07:19.574Z,0.30
2023-01-28T17:09:47.893Z,0.30
2023-01-28T17:12:16.115Z,0.30
2023-01-28T17:14:45.801Z,0.20
2023-01-28T17:17:14.189Z,0.20
2023-01-28T17:19:42.448Z,0.20
2023-01-28T17:22:10.968Z,0.20
2023-01-28T17:24:39.382Z,0.10
2023-01-28T17:27:07.776Z,0.10
2023-01-28T17:29:36.288Z,0.10
2023-01-28T17:32:06.325Z,0.10
2023-01-28T17:34:34.668Z,0.10
2023-01-28T17:37:03.027Z,0.10
2023-01-28T17:39:31.360Z,0.10
2023-01-28T17:41:59.578Z,0.10
2023-01-28T17:44:27.943Z,0.10
2023-01-28T17:46:56.308Z,0.00
2023-01-28T17:49:26.142Z,0.10
2023-01-28T17:51:54.537Z,0.20
2023-01-28T17:54:24.605Z,0.20
2023-01-28T17:56:52.926Z,0.10
2023-01-28T17:59:21.878Z,0.00
2023-01-28T18:01:54.535Z,0.00
2023-01-28T18:04:22.949Z,0.00
2023-01-28T18:06:52.759Z,-0.10
2023-01-28T18:09:21.213Z,-0.10
2023-01-28T18:11:49.548Z,-0.20
2023-01-28T18:14:17.889Z,-0.20
2023-01-28T18:16:46.168Z,-0.20
2023-01-28T18:19:14.547Z,-0.20
2023-01-28T18:21:52.623Z,-0.20
2023-01-28T18:24:23.887Z,-0.20
2023-01-28T18:26:52.699Z,-0.40
2023-01-28T18:29:23.936Z,-0.30
2023-01-28T18:31:55.303Z,-0.30
2023-01-28T18:34:24.301Z,-0.30
2023-01-28T18:36:52.815Z,-0.20
2023-01-28T18:39:23.300Z,-0.20
2023-01-28T18:41:54.223Z,-0.20
2023-01-28T18:44:24.175Z,-0.40
2023-01-28T18:46:56.834Z,-0.40
2023-01-28T18:49:25.088Z,-0.40
2023-01-28T18:51:54.089Z,-0.40
2023-01-28T18:54:24.817Z,-0.40
2023-01-28T18:56:53.056Z,-0.50
2023-01-28T18:59:21.471Z,-0.50
2023-01-28T19:01:50.100Z,-0.40
2023-01-28T19:04:19.083Z,-0.60
2023-01-28T19:06:47.666Z,-0.50
2023-01-28T19:09:17.665Z,-0.60
2023-01-28T19:11:48.357Z,-0.60
2023-01-28T19:14:17.495Z,-0.60
2023-01-28T19:16:46.130Z,-0.60
2023-01-28T19:19:14.919Z,-0.60
2023-01-28T19:21:43.109Z,-0.60
2023-01-28T19:24:14.173Z,-0.60
2023-01-28T19:26:43.927Z,-0.70
2023-01-28T19:29:16.051Z,-0.70
2023-01-28T19:31:48.976Z,-0.70
2023-01-28T19:34:17.589Z,-0.80
2023-01-28T19:36:46.808Z,-0.80
2023-01-28T19:39:15.828Z,-0.80
2023-01-28T19:41:44.824Z,-0.80
2023-01-28T19:44:14.635Z,-0.80
2023-01-28T19:46:42.947Z,-0.80
2023-01-28T19:49:12.694Z,-0.80
2023-01-28T19:51:41.071Z,-0.90
2023-01-28T19:54:09.734Z,-1.00
2023-01-28T19:56:38.659Z,-0.90
2023-01-28T19:59:07.410Z,-1.00
2023-01-28T20:01:37.375Z,-1.00
2023-01-28T20:04:06.047Z,-1.00
2023-01-28T20:06:35.448Z,-1.10
2023-01-28T20:09:07.786Z,-1.00
2023-01-28T20:11:36.915Z,-1.00
2023-01-28T20:14:05.131Z,-1.10
2023-01-28T20:16:35.077Z,-1.10
2023-01-28T20:19:07.211Z,-1.10
2023-01-28T20:21:37.102Z,-1.10
2023-01-28T20:24:06.840Z,-1.10
2023-01-28T20:26:38.205Z,-1.10
2023-01-28T20:29:08.993Z,-1.20
2023-01-28T20:31:38.726Z,-1.20
2023-01-28T20:34:09.117Z,-1.20
2023-01-28T20:36:37.513Z,-1.20
2023-01-28T20:39:05.781Z,-1.20
2023-01-28T20:41:34.062Z,-1.10
2023-01-28T20:44:04.800Z,-1.20
2023-01-28T20:46:36.440Z,-1.20
2023-01-28T20:49:06.620Z,-1.20
2023-01-28T20:51:38.258Z,-1.20
2023-01-28T20:54:06.861Z,-1.30
2023-01-28T20:56:35.218Z,-1.30
2023-01-28T20:59:05.205Z,-1.30
2023-01-28T21:01:35.343Z,-1.40
2023-01-28T21:04:04.242Z,-1.30
2023-01-28T21:06:33.131Z,-1.40
2023-01-28T21:09:02.923Z,-1.40
2023-01-28T21:11:31.589Z,-1.40
2023-01-28T21:13:59.864Z,-1.30
2023-01-28T21:16:28.545Z,-1.40
2023-01-28T21:18:56.960Z,-1.40
2023-01-28T21:21:28.547Z,-1.50
2023-01-28T21:23:58.109Z,-1.40
2023-01-28T21:26:27.929Z,-1.40
2023-01-28T21:28:57.118Z,-1.30
2023-01-28T21:31:26.667Z,-1.30
2023-01-28T21:33:56.132Z,-1.40
2023-01-28T21:36:25.814Z,-1.50
2023-01-28T21:38:55.354Z,-1.50
2023-01-28T21:41:23.987Z,-1.60
2023-01-28T21:43:55.017Z,-1.50
2023-01-28T21:46:24.035Z,-1.50
2023-01-28T21:48:56.102Z,-1.50
2023-01-28T21:51:39.289Z,-1.50
2023-01-28T21:54:11.035Z,-1.70
2023-01-28T21:56:39.594Z,-1.70
2023-01-28T21:59:29.015Z,-1.70
2023-01-28T22:01:59.738Z,-1.70
2023-01-28T22:04:30.003Z,-1.70
2023-01-28T22:06:58.686Z,-1.70
2023-01-28T22:09:52.058Z,-1.70
2023-01-28T22:12:22.538Z,-1.70
2023-01-28T22:14:52.154Z,-1.70
2023-01-28T22:17:20.516Z,-1.70
2023-01-28T22:19:50.718Z,-1.70
2023-01-28T22:22:19.374Z,-1.70
2023-01-28T22:24:47.695Z,-1.80
2023-01-28T22:27:15.882Z,-1.70
2023-01-28T22:29:44.128Z,-1.70
2023-01-28T22:32:13.837Z,-1.70
2023-01-28T22:34:42.181Z,-1.70
2023-01-28T22:37:10.757Z,-1.80
2023-01-28T22:39:39.115Z,-1.80
2023-01-28T22:42:07.353Z,-1.80
2023-01-28T22:44:35.636Z,-1.70
2023-01-28T22:47:04.011Z,-1.80
2023-01-28T22:49:33.903Z,-1.70
2023-01-28T22:52:02.188Z,-1.80
2023-01-28T22:54:30.516Z,-1.80
2023-01-28T22:56:59.180Z,-1.70
2023-01-28T22:59:27.519Z,-1.70
2023-01-28T23:01:55.732Z,-1.80
2023-01-28T23:04:24.101Z,-1.90
2023-01-28T23:06:53.705Z,-1.90
2023-01-28T23:09:21.935Z,-1.90
2023-01-28T23:11:50.157Z,-1.90
2023-01-28T23:14:35.698Z,-1.90
2023-01-28T23:17:21.436Z,-1.90
2023-01-28T23:20:12.769Z,-1.90
2023-01-28T23:22:59.540Z,-1.90
2023-01-28T23:25:27.721Z,-2.00
2023-01-28T23:27:56.048Z,-2.00
2023-01-28T23:30:25.653Z,-1.90
2023-01-28T23:32:57.124Z,-2.10
2023-01-28T23:35:26.989Z,-2.00
2023-01-28T23:37:56.733Z,-1.90
2023-01-28T23:40:27.240Z,-1.90
2023-01-28T23:42:56.429Z,-1.90
2023-01-28T23:45:25.193Z,-2.00
2023-01-28T23:47:53.479Z,-2.00
2023-01-28T23:50:22.774Z,-2.10
2023-01-28T23:52:51.016Z,-2.00
2023-01-28T23:55:20.648Z,-2.00
2023-01-28T23:57:48.906Z,-2.10
